Time;durP1;ratioP1;P1;durP2;ratioP2;P2;SDS_P1;SDS_P2;PMS_P1;PMS_P2;Temp;Humidity;BMP_temperature;BMP_pressure;BME280_temperature;BME280_humidity;BME280_pressure;Samples;Min_cycle;Max_cycle;Signal;HPM_P1;HPM_P2
2022/06/26 00:00:35;;;;;;;4.33;2.77;;;20.20;89.90;;;;;;4992573;28;20784;-67
2022/06/26 00:03:04;;;;;;;6.03;3.60;;;20.20;90.00;;;;;;4992404;28;20543;-67
2022/06/26 00:05:31;;;;;;;5.90;3.10;;;20.20;89.70;;;;;;4991963;28;20474;-67
2022/06/26 00:07:59;;;;;;;9.07;4.03;;;20.20;89.70;;;;;;4992154;28;20483;-66
2022/06/26 00:10:26;;;;;;;6.23;4.60;;;20.20;89.90;;;;;;4991883;28;20483;-66
2022/06/26 00:12:53;;;;;;;8.13;5.40;;;20.20;90.20;;;;;;4991839;28;20444;-67
2022/06/26 00:15:21;;;;;;;7.90;6.23;;;20.20;90.30;;;;;;4992469;28;20444;-66
2022/06/26 00:17:48;;;;;;;7.23;5.63;;;20.20;90.50;;;;;;4992151;28;20435;-67
2022/06/26 00:20:17;;;;;;;5.90;4.83;;;20.10;90.40;;;;;;4992454;28;20443;-66
2022/06/26 00:22:44;;;;;;;6.83;5.37;;;20.10;90.50;;;;;;4992282;28;20439;-66
2022/06/26 00:25:11;;;;;;;5.30;4.27;;;20.00;90.70;;;;;;4992321;28;20942;-67
2022/06/26 00:27:38;;;;;;;6.27;4.10;;;20.00;90.90;;;;;;4991931;28;20440;-67
2022/06/26 00:30:07;;;;;;;4.03;3.33;;;20.00;90.60;;;;;;4992461;28;20486;-73
2022/06/26 00:32:34;;;;;;;6.27;2.00;;;19.90;90.40;;;;;;4992798;28;20490;-66
2022/06/26 00:35:01;;;;;;;3.43;2.43;;;19.90;90.40;;;;;;4995840;28;20435;-67
2022/06/26 00:37:29;;;;;;;4.73;2.60;;;19.90;90.40;;;;;;4995626;28;20439;-68
2022/06/26 00:39:57;;;;;;;5.20;2.80;;;19.90;90.50;;;;;;4995870;28;20934;-67
2022/06/26 00:42:24;;;;;;;4.03;2.57;;;19.90;90.60;;;;;;4995390;28;20522;-66
2022/06/26 00:44:55;;;;;;;4.60;3.83;;;19.90;90.70;;;;;;4995613;28;20531;-67
2022/06/26 00:47:24;;;;;;;4.30;2.50;;;19.90;90.70;;;;;;4995272;28;20957;-67
2022/06/26 00:49:52;;;;;;;3.87;3.10;;;20.00;90.70;;;;;;4995249;28;20989;-67
2022/06/26 00:52:21;;;;;;;4.00;3.33;;;19.90;91.10;;;;;;4995102;28;20467;-67
2022/06/26 00:54:50;;;;;;;4.73;3.93;;;20.00;91.90;;;;;;4995557;28;20480;-67
2022/06/26 00:57:17;;;;;;;7.70;3.13;;;19.90;91.90;;;;;;4995106;28;20961;-67
2022/06/26 00:59:45;;;;;;;3.47;2.63;;;19.90;92.30;;;;;;4995211;28;20507;-67
2022/06/26 01:02:12;;;;;;;4.80;2.73;;;19.80;92.40;;;;;;4995088;28;20513;-67
2022/06/26 01:04:39;;;;;;;4.00;2.63;;;19.80;92.50;;;;;;4995154;28;20462;-67
2022/06/26 01:07:07;;;;;;;4.33;2.20;;;19.80;92.60;;;;;;4995299;28;20466;-66
2022/06/26 01:09:35;;;;;;;3.00;2.33;;;19.80;92.60;;;;;;4994911;28;20471;-67
2022/06/26 01:12:04;;;;;;;2.87;2.23;;;19.80;92.70;;;;;;4995242;28;20517;-66
2022/06/26 01:14:31;;;;;;;2.60;1.77;;;19.80;92.70;;;;;;4995123;28;20843;-67
2022/06/26 01:17:00;;;;;;;2.90;2.27;;;19.80;92.40;;;;;;4995107;28;20797;-66
2022/06/26 01:19:28;;;;;;;3.90;1.77;;;19.80;92.20;;;;;;4994605;28;20443;-67
2022/06/26 01:21:55;;;;;;;2.70;1.83;;;19.90;92.20;;;;;;4994943;28;20613;-67
2022/06/26 01:24:24;;;;;;;2.90;2.00;;;19.90;92.10;;;;;;4994505;28;20935;-67
2022/06/26 01:26:51;;;;;;;3.33;2.07;;;19.90;91.80;;;;;;4994636;28;20527;-67
2022/06/26 01:29:18;;;;;;;3.20;1.87;;;19.80;91.80;;;;;;4994722;28;20554;-67
2022/06/26 01:31:45;;;;;;;4.83;2.30;;;19.80;91.80;;;;;;4994298;28;20440;-66
2022/06/26 01:34:13;;;;;;;2.97;1.87;;;19.70;91.90;;;;;;4994045;28;20439;-67
2022/06/26 01:36:40;;;;;;;3.67;2.67;;;19.70;92.40;;;;;;4994329;28;20486;-66
2022/06/26 01:39:07;;;;;;;4.83;2.27;;;19.70;92.50;;;;;;4995046;28;20848;-66
2022/06/26 01:41:36;;;;;;;3.10;2.10;;;19.70;92.60;;;;;;4994216;28;20496;-66
2022/06/26 01:44:03;;;;;;;3.47;2.17;;;19.70;92.70;;;;;;4993400;28;20476;-67
2022/06/26 01:46:30;;;;;;;3.50;2.30;;;19.70;92.70;;;;;;4994366;28;20432;-67
2022/06/26 01:48:57;;;;;;;3.17;2.00;;;19.60;92.60;;;;;;4994561;28;20920;-66
2022/06/26 01:51:24;;;;;;;2.70;1.93;;;19.60;92.60;;;;;;4993550;28;20436;-67
2022/06/26 01:53:51;;;;;;;5.30;2.87;;;19.70;92.70;;;;;;4994519;28;20494;-67
2022/06/26 01:56:19;;;;;;;3.27;2.67;;;19.60;92.80;;;;;;4994403;28;20458;-67
2022/06/26 01:58:47;;;;;;;4.03;2.33;;;19.70;92.80;;;;;;4993995;28;20965;-67
2022/06/26 02:01:14;;;;;;;3.90;2.67;;;19.70;92.80;;;;;;4994305;28;20542;-66
2022/06/26 02:03:41;;;;;;;3.37;2.50;;;19.70;92.80;;;;;;4994395;28;20448;-67
2022/06/26 02:06:10;;;;;;;4.20;2.67;;;19.70;92.80;;;;;;4994093;28;20502;-67
2022/06/26 02:08:37;;;;;;;7.23;3.03;;;19.60;92.70;;;;;;4993820;28;20447;-69
2022/06/26 02:13:50;;;;;;;4.37;2.43;;;19.60;92.80;;;;;;4993857;28;20438;-67
2022/06/26 02:16:19;;;;;;;3.33;2.30;;;19.60;92.70;;;;;;4994041;28;20454;-66
2022/06/26 02:18:49;;;;;;;3.03;2.27;;;19.60;92.60;;;;;;4993487;28;20470;-67
2022/06/26 02:21:19;;;;;;;3.00;2.10;;;19.70;92.70;;;;;;4993632;28;20547;-66
2022/06/26 02:23:48;;;;;;;3.43;2.50;;;19.70;92.80;;;;;;4993957;28;20443;-67
2022/06/26 02:26:17;;;;;;;3.73;2.30;;;19.80;93.20;;;;;;4993484;28;20498;-67
2022/06/26 02:28:44;;;;;;;3.73;2.43;;;19.70;93.50;;;;;;4993770;28;20467;-67
2022/06/26 02:31:13;;;;;;;3.90;2.90;;;19.80;93.80;;;;;;4992864;28;20562;-66
2022/06/26 02:33:40;;;;;;;5.57;3.10;;;19.80;93.90;;;;;;4993679;28;20447;-66
2022/06/26 02:36:09;;;;;;;6.83;2.60;;;19.80;94.20;;;;;;4993105;28;20451;-66
2022/06/26 02:38:37;;;;;;;3.50;2.53;;;19.80;94.10;;;;;;4993564;28;20436;-66
2022/06/26 02:41:05;;;;;;;3.63;2.43;;;19.80;94.10;;;;;;4993117;28;20444;-67
2022/06/26 02:43:32;;;;;;;3.90;2.00;;;19.80;94.10;;;;;;4993663;28;20447;-67
2022/06/26 02:45:59;;;;;;;6.60;2.10;;;19.80;94.20;;;;;;4992961;28;20837;-66
2022/06/26 02:48:28;;;;;;;3.33;2.30;;;19.80;94.20;;;;;;4993492;28;20444;-67
2022/06/26 02:50:55;;;;;;;5.27;2.63;;;19.70;94.30;;;;;;4993013;28;20486;-67
2022/06/26 02:53:22;;;;;;;3.30;2.30;;;19.70;94.50;;;;;;4993457;28;20446;-66
2022/06/26 02:55:49;;;;;;;3.50;2.63;;;19.70;94.50;;;;;;4992389;28;20448;-66
2022/06/26 02:58:16;;;;;;;5.27;2.70;;;19.70;94.60;;;;;;4993178;28;20447;-67
2022/06/26 03:00:43;;;;;;;6.33;2.77;;;19.70;94.60;;;;;;4993165;28;20447;-67
2022/06/26 03:03:10;;;;;;;4.43;3.07;;;19.70;94.40;;;;;;4993148;28;20440;-66
2022/06/26 03:05:39;;;;;;;5.73;2.87;;;19.70;94.20;;;;;;4993289;28;20474;-67
2022/06/26 03:08:06;;;;;;;4.20;3.10;;;19.70;94.10;;;;;;4992646;28;20496;-66
2022/06/26 03:10:33;;;;;;;5.07;2.53;;;19.70;94.40;;;;;;4993106;28;20480;-66
2022/06/26 03:13:00;;;;;;;2.87;2.03;;;19.60;94.40;;;;;;4992887;28;20479;-67
2022/06/26 03:15:27;;;;;;;3.13;1.90;;;19.60;94.60;;;;;;4992969;28;20790;-67
2022/06/26 03:17:54;;;;;;;2.90;1.97;;;19.60;94.60;;;;;;4993143;28;20471;-67
2022/06/26 03:20:22;;;;;;;4.00;2.17;;;19.60;94.40;;;;;;4992832;28;20523;-67
2022/06/26 03:22:51;;;;;;;2.90;1.93;;;19.60;94.60;;;;;;4992976;28;20482;-67
2022/06/26 03:25:18;;;;;;;2.77;1.90;;;19.60;94.60;;;;;;4992555;28;20446;-67
2022/06/26 03:27:45;;;;;;;7.17;2.13;;;19.60;94.40;;;;;;4992728;28;20443;-67
2022/06/26 03:30:13;;;;;;;2.23;1.60;;;19.60;94.30;;;;;;4992530;28;20486;-67
2022/06/26 03:32:41;;;;;;;2.97;1.90;;;19.60;94.40;;;;;;4992300;28;20965;-67
2022/06/26 03:35:09;;;;;;;4.60;2.70;;;19.70;94.70;;;;;;4992845;28;20440;-67
2022/06/26 03:37:36;;;;;;;3.00;1.97;;;19.70;95.10;;;;;;4992476;28;20439;-67
2022/06/26 03:40:06;;;;;;;2.83;1.80;;;19.70;95.40;;;;;;4992200;28;20448;-67
2022/06/26 03:42:33;;;;;;;3.70;1.90;;;19.80;95.40;;;;;;4992246;28;20802;-67
2022/06/26 03:45:00;;;;;;;3.20;2.00;;;19.80;95.40;;;;;;4992658;28;20444;-67
2022/06/26 03:47:33;;;;;;;4.10;1.77;;;19.80;95.60;;;;;;4992516;28;20667;-68
2022/06/26 03:50:00;;;;;;;3.07;1.37;;;19.80;95.40;;;;;;4992593;28;20554;-72
2022/06/26 03:52:28;;;;;;;2.73;1.73;;;19.80;95.60;;;;;;4991727;28;20467;-67
2022/06/26 03:54:55;;;;;;;4.27;1.70;;;19.80;95.60;;;;;;4992614;28;20446;-67
2022/06/26 03:57:23;;;;;;;2.73;1.87;;;19.80;95.70;;;;;;4992538;28;20447;-67
2022/06/26 03:59:50;;;;;;;2.53;1.60;;;19.80;95.80;;;;;;4992580;28;20923;-69
2022/06/26 04:02:17;;;;;;;3.30;1.80;;;19.80;96.00;;;;;;4992324;28;20502;-68
2022/06/26 04:04:44;;;;;;;2.27;1.40;;;19.80;95.90;;;;;;4993160;28;20439;-68
2022/06/26 04:07:12;;;;;;;3.87;1.73;;;19.80;95.70;;;;;;4992392;28;20439;-68
2022/06/26 04:09:40;;;;;;;2.93;1.27;;;19.80;95.80;;;;;;4996579;28;20485;-68
2022/06/26 04:12:07;;;;;;;3.30;1.53;;;19.80;95.70;;;;;;4996303;28;20436;-68
2022/06/26 04:14:36;;;;;;;2.40;1.23;;;19.80;95.80;;;;;;4996483;28;20498;-67
2022/06/26 04:17:04;;;;;;;2.97;1.20;;;19.80;95.80;;;;;;4995745;28;20857;-68
2022/06/26 04:19:31;;;;;;;2.97;1.50;;;19.70;95.10;;;;;;4996557;28;20443;-68
2022/06/26 04:21:59;;;;;;;2.70;1.37;;;19.70;94.90;;;;;;4996185;28;20490;-67
2022/06/26 04:24:26;;;;;;;2.10;1.27;;;19.60;94.60;;;;;;4996455;28;20874;-68
2022/06/26 04:26:53;;;;;;;2.63;1.70;;;19.50;94.60;;;;;;4996145;28;20522;-67
2022/06/26 04:29:20;;;;;;;2.60;1.50;;;19.60;94.60;;;;;;4996077;28;20517;-68
2022/06/26 04:31:48;;;;;;;3.07;1.87;;;19.50;94.30;;;;;;4995891;28;20491;-67
2022/06/26 04:34:16;;;;;;;3.40;1.40;;;19.50;94.10;;;;;;4996306;28;20647;-69
2022/06/26 04:36:43;;;;;;;3.90;2.00;;;19.40;93.70;;;;;;4995971;28;20446;-67
2022/06/26 04:39:11;;;;;;;2.40;1.43;;;19.40;93.70;;;;;;4995797;28;20435;-67
2022/06/26 04:41:39;;;;;;;3.00;1.20;;;19.30;93.30;;;;;;4995629;28;20444;-67
2022/06/26 04:44:07;;;;;;;4.17;1.00;;;19.30;93.00;;;;;;4996074;28;20443;-67
2022/06/26 04:46:36;;;;;;;2.70;1.23;;;19.30;92.50;;;;;;4995393;28;20938;-67
2022/06/26 04:49:05;;;;;;;1.90;1.20;;;19.30;92.30;;;;;;4995819;28;20446;-68
2022/06/26 04:51:34;;;;;;;3.03;1.30;;;19.30;92.50;;;;;;4995627;28;20483;-67
2022/06/26 04:54:01;;;;;;;2.93;1.53;;;19.20;92.30;;;;;;4995829;28;20435;-67
2022/06/26 04:56:28;;;;;;;2.50;1.77;;;19.30;92.30;;;;;;4995528;28;20446;-67
2022/06/26 04:58:56;;;;;;;2.67;1.30;;;19.30;92.00;;;;;;4995719;28;21014;-67
2022/06/26 05:01:24;;;;;;;2.23;1.50;;;19.30;92.10;;;;;;4995103;28;20942;-68
2022/06/26 05:03:51;;;;;;;2.10;1.20;;;19.30;91.70;;;;;;4995451;28;20884;-68
2022/06/26 05:06:21;;;;;;;2.90;1.40;;;19.40;91.70;;;;;;4995624;28;20510;-67
2022/06/26 05:08:49;;;;;;;2.10;1.10;;;19.50;92.60;;;;;;4995437;28;20435;-67
2022/06/26 05:11:16;;;;;;;5.93;3.30;;;19.50;92.80;;;;;;4995278;28;20483;-67
2022/06/26 05:13:43;;;;;;;7.30;4.13;;;19.50;93.20;;;;;;4994955;28;20440;-67
2022/06/26 05:16:10;;;;;;;6.87;3.90;;;19.50;93.20;;;;;;4995328;28;20985;-67
2022/06/26 05:18:37;;;;;;;5.73;3.70;;;19.50;93.30;;;;;;4994516;28;20942;-67
2022/06/26 05:21:04;;;;;;;3.33;2.07;;;19.50;93.10;;;;;;4995353;28;20444;-67
2022/06/26 05:23:33;;;;;;;4.23;1.60;;;19.60;92.70;;;;;;4994784;28;20451;-68
2022/06/26 05:26:00;;;;;;;4.47;1.83;;;19.70;93.10;;;;;;4995305;28;20848;-67
2022/06/26 05:28:27;;;;;;;3.90;1.80;;;19.70;93.40;;;;;;4995074;28;20858;-67
2022/06/26 05:30:54;;;;;;;3.60;1.50;;;19.70;93.20;;;;;;4994952;28;20522;-67
2022/06/26 05:33:22;;;;;;;2.83;1.70;;;19.70;92.80;;;;;;4995266;28;20465;-67
2022/06/26 05:35:49;;;;;;;2.33;1.30;;;19.80;93.30;;;;;;4994648;28;20530;-67
2022/06/26 05:38:16;;;;;;;2.70;1.53;;;19.90;93.10;;;;;;4994690;28;20447;-68
2022/06/26 05:40:44;;;;;;;3.70;2.30;;;19.90;93.00;;;;;;4995100;28;20436;-69
2022/06/26 05:43:11;;;;;;;4.63;1.37;;;20.10;92.90;;;;;;4994372;28;21009;-67
2022/06/26 05:45:39;;;;;;;2.67;1.60;;;20.20;92.40;;;;;;4994979;28;20444;-68
2022/06/26 05:48:07;;;;;;;2.33;1.43;;;20.20;92.80;;;;;;4994342;28;20954;-67
2022/06/26 05:50:34;;;;;;;8.77;1.90;;;20.30;92.50;;;;;;4994988;28;20475;-67
2022/06/26 05:53:01;;;;;;;2.10;1.17;;;20.30;92.10;;;;;;4994166;28;20486;-68
2022/06/26 05:55:28;;;;;;;3.07;1.13;;;20.40;92.70;;;;;;4994664;28;20443;-68
2022/06/26 05:57:57;;;;;;;2.40;1.30;;;20.50;92.20;;;;;;4994654;28;20510;-68
2022/06/26 06:00:24;;;;;;;2.17;1.23;;;20.60;90.40;;;;;;4994564;28;20443;-67
2022/06/26 06:02:51;;;;;;;2.30;1.17;;;20.70;87.70;;;;;;4994010;28;20458;-67
2022/06/26 06:05:18;;;;;;;2.50;1.40;;;20.80;88.10;;;;;;4994601;28;20447;-68
2022/06/26 06:07:45;;;;;;;2.30;1.20;;;20.90;85.20;;;;;;4994231;28;20435;-68
2022/06/26 06:10:12;;;;;;;2.67;1.37;;;20.90;84.80;;;;;;4994278;28;20451;-67
2022/06/26 06:12:39;;;;;;;2.10;1.10;;;20.90;84.30;;;;;;4993543;28;20440;-68
2022/06/26 06:15:10;;;;;;;1.90;1.00;;;21.00;87.80;;;;;;4993954;28;20447;-67
2022/06/26 06:17:37;;;;;;;4.43;1.00;;;21.10;89.00;;;;;;4993724;28;20456;-67
2022/06/26 06:20:06;;;;;;;3.10;1.30;;;21.20;86.60;;;;;;4994353;28;20439;-67
2022/06/26 06:22:33;;;;;;;2.33;1.07;;;21.30;85.70;;;;;;4993813;28;20543;-67
2022/06/26 06:25:00;;;;;;;2.80;1.20;;;21.30;85.80;;;;;;4993885;28;20514;-67
2022/06/26 06:27:28;;;;;;;3.33;1.33;;;21.40;84.00;;;;;;4993800;28;20920;-69
2022/06/26 06:29:55;;;;;;;3.70;1.00;;;21.50;85.20;;;;;;4992708;28;20869;-68
2022/06/26 06:32:24;;;;;;;2.00;0.90;;;21.60;86.40;;;;;;4993796;28;20487;-67
2022/06/26 06:34:51;;;;;;;2.10;1.50;;;21.70;85.40;;;;;;4993391;28;20444;-68
2022/06/26 06:37:19;;;;;;;1.97;1.07;;;21.80;85.60;;;;;;4993934;28;20490;-67
2022/06/26 06:39:46;;;;;;;2.40;1.30;;;21.90;85.40;;;;;;4989838;28;20443;-67
2022/06/26 06:42:13;;;;;;;3.30;1.20;;;22.00;82.80;;;;;;4992514;28;20774;-67
2022/06/26 06:44:40;;;;;;;2.30;0.83;;;22.00;83.50;;;;;;4992105;28;20485;-67
2022/06/26 06:47:08;;;;;;;2.13;1.00;;;22.20;80.30;;;;;;4992017;28;20436;-68
2022/06/26 06:49:36;;;;;;;3.43;1.10;;;22.20;80.70;;;;;;4987722;28;20502;-67
2022/06/26 06:52:04;;;;;;;2.50;1.17;;;22.20;77.90;;;;;;4991908;28;20834;-68
2022/06/26 06:54:32;;;;;;;3.30;1.20;;;22.30;78.00;;;;;;4991823;28;20468;-67
2022/06/26 06:56:59;;;;;;;2.50;1.40;;;22.30;79.60;;;;;;4990885;28;20504;-68
2022/06/26 06:59:26;;;;;;;2.40;1.23;;;22.40;79.80;;;;;;4991801;28;20443;-68
2022/06/26 07:01:55;;;;;;;1.83;0.93;;;22.50;79.30;;;;;;4991368;28;20480;-67
2022/06/26 07:04:22;;;;;;;2.23;0.83;;;22.50;77.60;;;;;;4991969;28;20487;-69
2022/06/26 07:06:51;;;;;;;3.17;1.23;;;22.60;76.80;;;;;;4990913;28;20919;-68
2022/06/26 07:09:18;;;;;;;2.40;1.13;;;22.60;77.90;;;;;;4988446;28;20513;-68
2022/06/26 07:11:45;;;;;;;3.10;1.47;;;22.60;77.90;;;;;;4991235;28;20511;-70
2022/06/26 07:14:12;;;;;;;1.90;1.10;;;22.80;79.30;;;;;;4991329;28;20929;-68
2022/06/26 07:16:39;;;;;;;1.87;1.00;;;22.90;78.50;;;;;;4987618;28;20449;-67
2022/06/26 07:19:07;;;;;;;3.30;1.13;;;22.90;77.90;;;;;;4991218;28;20481;-68
2022/06/26 07:21:34;;;;;;;2.70;1.00;;;23.10;78.40;;;;;;4991552;28;20506;-67
2022/06/26 07:24:02;;;;;;;2.00;1.17;;;23.20;79.40;;;;;;4990865;28;20975;-69
2022/06/26 07:26:30;;;;;;;3.17;1.70;;;23.30;79.00;;;;;;4987439;28;20435;-67
2022/06/26 07:28:57;;;;;;;1.93;0.93;;;23.30;79.00;;;;;;4991427;28;20478;-67
2022/06/26 07:31:24;;;;;;;3.03;1.23;;;23.50;78.40;;;;;;4991157;28;20492;-67
2022/06/26 07:36:36;;;;;;;2.10;1.10;;;23.60;76.80;;;;;;4991193;28;20492;-68
2022/06/26 07:39:05;;;;;;;2.20;1.07;;;23.70;75.90;;;;;;4991222;28;20525;-68
2022/06/26 07:41:32;;;;;;;3.00;1.10;;;23.80;76.40;;;;;;4991922;28;20449;-68
2022/06/26 07:43:59;;;;;;;3.00;1.27;;;23.90;73.00;;;;;;4995453;28;20450;-68
2022/06/26 07:46:27;;;;;;;2.10;0.93;;;24.00;71.40;;;;;;4994292;28;20501;-69
2022/06/26 07:48:54;;;;;;;2.73;1.20;;;24.10;71.30;;;;;;4994672;28;20968;-67
2022/06/26 07:51:21;;;;;;;2.33;1.17;;;24.20;66.20;;;;;;4995124;28;20889;-67
2022/06/26 07:53:48;;;;;;;1.83;1.03;;;24.30;66.40;;;;;;4995187;28;20444;-68
2022/06/26 07:56:17;;;;;;;1.83;0.93;;;24.30;65.90;;;;;;4995032;28;20454;-68
2022/06/26 07:58:44;;;;;;;2.00;0.90;;;24.40;67.80;;;;;;4991687;28;20513;-67
2022/06/26 08:01:14;;;;;;;2.20;1.00;;;24.50;66.10;;;;;;4990585;28;20498;-67
2022/06/26 08:03:41;;;;;;;2.93;1.00;;;24.40;64.10;;;;;;4991020;28;20443;-68
2022/06/26 08:06:08;;;;;;;2.07;1.10;;;24.50;65.70;;;;;;4991993;28;20443;-68
2022/06/26 08:08:35;;;;;;;1.60;0.80;;;24.60;66.70;;;;;;4990932;28;20447;-67
2022/06/26 08:11:02;;;;;;;2.50;1.23;;;24.70;66.90;;;;;;4992754;28;20537;-68
2022/06/26 08:13:31;;;;;;;1.90;0.93;;;24.80;68.50;;;;;;4993806;28;20934;-68
2022/06/26 08:15:58;;;;;;;1.70;0.93;;;24.90;66.90;;;;;;4993725;28;20445;-68
2022/06/26 08:18:25;;;;;;;3.43;1.20;;;25.00;66.20;;;;;;4993588;28;20768;-67
2022/06/26 08:20:52;;;;;;;1.80;0.80;;;25.10;66.40;;;;;;4994866;28;20479;-67
2022/06/26 08:23:18;;;;;;;3.80;0.90;;;25.20;66.10;;;;;;4993530;28;20540;-69
2022/06/26 08:25:46;;;;;;;4.43;1.20;;;25.30;65.90;;;;;;4991542;28;20431;-67
2022/06/26 08:28:13;;;;;;;2.90;0.90;;;25.30;63.00;;;;;;4994492;28;20487;-68
2022/06/26 08:30:41;;;;;;;2.20;1.20;;;25.40;62.40;;;;;;4994462;28;20514;-68
2022/06/26 08:33:08;;;;;;;1.73;0.80;;;25.50;63.00;;;;;;4994062;28;21328;-68
2022/06/26 08:35:36;;;;;;;4.10;1.00;;;25.60;62.60;;;;;;4993051;28;20526;-67
2022/06/26 08:38:03;;;;;;;1.80;0.80;;;25.70;62.20;;;;;;4994730;28;20846;-68
2022/06/26 08:40:36;;;;;;;2.40;1.20;;;25.80;62.40;;;;;;4994089;28;20443;-68
2022/06/26 08:43:05;;;;;;;1.90;0.90;;;25.90;62.30;;;;;;4994647;28;20767;-69
2022/06/26 08:45:33;;;;;;;1.80;0.93;;;25.90;61.20;;;;;;4993637;28;20957;-68
2022/06/26 08:48:06;;;;;;;2.20;0.90;;;26.10;62.10;;;;;;4994200;28;20442;-68
2022/06/26 08:50:33;;;;;;;2.17;0.80;;;26.10;60.00;;;;;;4993960;28;20850;-68
2022/06/26 08:53:02;;;;;;;2.43;0.77;;;26.20;60.60;;;;;;4993550;28;20491;-68
2022/06/26 08:55:29;;;;;;;2.33;0.97;;;26.30;58.60;;;;;;4993638;28;20939;-68
2022/06/26 08:57:56;;;;;;;2.80;1.10;;;26.40;58.40;;;;;;4993349;28;20927;-68
2022/06/26 09:00:24;;;;;;;2.20;0.93;;;26.40;57.70;;;;;;4993909;28;20448;-68
2022/06/26 09:02:51;;;;;;;4.67;1.07;;;26.50;59.30;;;;;;4993887;28;20849;-68
2022/06/26 09:05:20;;;;;;;2.23;0.97;;;26.60;58.70;;;;;;4994077;28;20443;-67
2022/06/26 09:07:49;;;;;;;4.10;1.03;;;26.70;60.60;;;;;;4992990;28;20851;-68
2022/06/26 09:10:17;;;;;;;2.03;1.03;;;26.80;58.40;;;;;;4993839;28;21016;-68
2022/06/26 09:12:50;;;;;;;2.40;1.03;;;26.90;58.40;;;;;;4993027;28;20542;-68
2022/06/26 09:15:18;;;;;;;1.83;0.87;;;27.00;58.90;;;;;;4989570;28;20501;-67
2022/06/26 09:17:59;;;;;;;2.50;1.00;;;27.00;58.20;;;;;;4993341;28;20816;-68
2022/06/26 09:20:28;;;;;;;1.80;0.90;;;27.10;57.40;;;;;;4993467;28;20488;-68
2022/06/26 09:22:57;;;;;;;1.90;0.90;;;27.20;57.00;;;;;;4993333;28;20448;-68
2022/06/26 09:25:35;;;;;;;1.70;0.80;;;27.20;55.60;;;;;;4993914;28;20502;-68
2022/06/26 09:28:07;;;;;;;1.70;0.70;;;27.30;53.90;;;;;;4991961;28;20435;-67
2022/06/26 09:30:34;;;;;;;2.10;0.80;;;27.40;52.70;;;;;;4993293;28;20471;-68
2022/06/26 09:33:02;;;;;;;2.93;0.90;;;27.40;51.30;;;;;;4992080;28;20490;-68
2022/06/26 09:35:31;;;;;;;2.53;1.00;;;27.50;53.10;;;;;;4989559;28;20443;-68
2022/06/26 09:38:01;;;;;;;2.10;0.80;;;27.50;52.70;;;;;;4993009;28;20479;-68
2022/06/26 09:40:28;;;;;;;1.93;0.90;;;27.60;53.40;;;;;;4993322;28;20948;-69
2022/06/26 09:42:56;;;;;;;2.73;0.80;;;27.60;53.90;;;;;;4992634;28;20951;-68
2022/06/26 09:45:38;;;;;;;2.43;0.83;;;27.70;53.20;;;;;;4993148;28;20444;-68
2022/06/26 09:48:06;;;;;;;1.70;0.90;;;27.70;52.90;;;;;;4992373;28;20427;-68
2022/06/26 09:50:35;;;;;;;1.70;0.83;;;27.80;53.60;;;;;;4993026;28;20436;-67
2022/06/26 09:53:03;;;;;;;1.80;0.80;;;27.90;53.40;;;;;;4992082;28;20484;-68
2022/06/26 09:55:30;;;;;;;2.13;0.97;;;27.90;52.10;;;;;;4992736;28;20436;-69
2022/06/26 09:57:58;;;;;;;1.87;0.93;;;27.90;53.00;;;;;;4992131;28;20522;-68
2022/06/26 10:00:26;;;;;;;2.07;0.87;;;28.00;53.50;;;;;;4992685;28;20447;-69
2022/06/26 10:08:26;;;;;;;2.73;1.10;;;28.30;52.60;;;;;;4991957;28;20452;-68
2022/06/26 10:10:55;;;;;;;1.80;0.90;;;28.30;51.20;;;;;;4992584;28;20474;-68
2022/06/26 10:13:24;;;;;;;2.63;0.93;;;28.40;51.80;;;;;;4992263;28;20550;-69
2022/06/26 10:15:55;;;;;;;2.40;1.10;;;28.50;52.30;;;;;;4991691;28;20438;-68
2022/06/26 10:18:40;;;;;;;2.10;1.10;;;28.50;51.20;;;;;;4992583;28;20522;-68
2022/06/26 10:21:12;;;;;;;2.40;1.00;;;28.60;51.50;;;;;;4989453;28;20479;-68
2022/06/26 10:23:41;;;;;;;2.10;1.10;;;28.60;50.60;;;;;;4992484;28;20448;-68
2022/06/26 10:26:21;;;;;;;2.97;0.97;;;28.60;50.80;;;;;;4988359;28;20455;-68
2022/06/26 10:28:59;;;;;;;2.17;0.90;;;28.70;50.90;;;;;;4990715;28;20470;-68
2022/06/26 10:31:29;;;;;;;1.77;0.90;;;28.70;50.70;;;;;;4991460;28;20440;-68
2022/06/26 10:33:56;;;;;;;2.73;0.80;;;28.80;52.30;;;;;;4992066;28;20455;-68
2022/06/26 10:36:26;;;;;;;2.90;0.90;;;28.80;51.00;;;;;;4991812;28;20467;-70
2022/06/26 10:39:03;;;;;;;2.20;1.00;;;28.80;51.50;;;;;;4991105;28;20494;-68
2022/06/26 10:44:32;;;;;;;2.20;1.10;;;28.80;51.30;;;;;;4991025;28;20490;-67
2022/06/26 10:47:00;;;;;;;2.90;1.17;;;29.00;49.70;;;;;;4988856;28;20439;-68
2022/06/26 10:49:27;;;;;;;1.80;0.80;;;29.00;50.10;;;;;;4991755;28;20444;-68
2022/06/26 10:51:56;;;;;;;2.20;1.03;;;29.00;49.10;;;;;;4991848;28;20519;-69
2022/06/26 10:54:24;;;;;;;2.30;1.20;;;29.10;49.60;;;;;;4987650;28;20455;-68
2022/06/26 10:57:12;;;;;;;3.27;0.93;;;29.10;50.00;;;;;;4992108;28;20444;-68
2022/06/26 10:59:41;;;;;;;2.37;1.00;;;29.10;51.00;;;;;;4988342;28;20479;-68
2022/06/26 11:02:10;;;;;;;1.73;1.00;;;29.20;50.70;;;;;;4990685;28;20494;-67
2022/06/26 11:04:45;;;;;;;4.00;1.30;;;29.20;49.30;;;;;;4990592;28;20776;-69
2022/06/26 11:07:16;;;;;;;1.63;0.70;;;29.20;49.90;;;;;;4989209;28;20485;-68
2022/06/26 11:09:43;;;;;;;2.33;0.90;;;29.30;50.20;;;;;;4991283;28;20494;-68
2022/06/26 11:12:10;;;;;;;3.33;1.13;;;29.30;48.80;;;;;;4991192;28;20487;-68
2022/06/26 11:14:37;;;;;;;1.80;0.90;;;29.40;50.00;;;;;;4991064;28;20487;-68
2022/06/26 11:17:07;;;;;;;2.20;1.00;;;29.40;50.70;;;;;;4991415;28;20452;-68
2022/06/26 11:20:46;;;;;;;1.97;0.90;;;29.40;50.80;;;;;;4990587;28;20450;-69
2022/06/26 11:22:28;;;;;;;1.80;0.90;;;29.50;49.80;;;;;;4988855;28;20431;-69
2022/06/26 11:24:57;;;;;;;2.10;0.93;;;29.40;50.00;;;;;;4986395;28;20455;-68
2022/06/26 11:27:26;;;;;;;3.17;1.13;;;29.40;50.80;;;;;;4991227;28;20439;-68
2022/06/26 11:29:53;;;;;;;2.20;1.20;;;29.40;51.10;;;;;;4990056;28;20472;-68
2022/06/26 11:32:22;;;;;;;2.67;0.93;;;29.40;51.60;;;;;;4991069;28;20565;-68
2022/06/26 11:34:50;;;;;;;2.07;1.07;;;29.50;51.00;;;;;;4991213;28;20498;-68
2022/06/26 11:37:17;;;;;;;2.37;1.00;;;29.50;50.40;;;;;;4991364;28;20503;-68
2022/06/26 11:39:46;;;;;;;2.40;1.20;;;29.60;49.70;;;;;;4990126;28;20870;-70
2022/06/26 11:42:17;;;;;;;1.70;0.90;;;29.60;50.10;;;;;;4987710;28;20521;-68
2022/06/26 11:44:48;;;;;;;4.03;1.10;;;29.70;50.20;;;;;;4991508;28;20997;-74
2022/06/26 11:47:15;;;;;;;2.73;0.93;;;29.70;49.40;;;;;;4990697;28;20439;-69
2022/06/26 11:49:43;;;;;;;2.40;1.30;;;29.70;50.20;;;;;;4991744;28;20444;-68
2022/06/26 11:52:10;;;;;;;1.70;0.90;;;29.70;50.00;;;;;;4991029;28;20534;-68
2022/06/26 11:54:37;;;;;;;2.00;1.00;;;29.70;51.00;;;;;;4991383;28;20479;-68
2022/06/26 11:57:09;;;;;;;1.90;1.10;;;29.80;51.30;;;;;;4990170;28;20444;-68
2022/06/26 11:59:42;;;;;;;1.90;0.90;;;29.80;51.40;;;;;;4990757;28;20451;-68
2022/06/26 12:02:27;;;;;;;2.20;0.93;;;29.80;50.40;;;;;;4990844;28;20934;-68
2022/06/26 12:04:58;;;;;;;1.97;0.87;;;29.80;50.10;;;;;;4988417;28;20841;-68
2022/06/26 12:07:25;;;;;;;2.03;1.00;;;29.90;51.10;;;;;;4990071;28;20490;-69
2022/06/26 12:09:52;;;;;;;2.50;0.87;;;29.90;52.00;;;;;;4990929;28;20447;-68
2022/06/26 12:12:21;;;;;;;2.67;1.10;;;29.90;49.80;;;;;;4990691;28;20998;-68
2022/06/26 12:14:54;;;;;;;2.20;1.30;;;29.90;50.40;;;;;;4991093;28;20502;-75
2022/06/26 12:17:23;;;;;;;2.10;1.27;;;30.00;51.40;;;;;;4990332;28;20451;-68
2022/06/26 12:19:50;;;;;;;2.17;1.37;;;29.90;50.20;;;;;;4991209;28;20490;-68
2022/06/26 12:22:29;;;;;;;2.30;1.23;;;29.90;50.80;;;;;;4990689;28;20440;-69
2022/06/26 12:24:57;;;;;;;2.80;1.00;;;30.00;51.20;;;;;;4987539;28;20447;-68
2022/06/26 12:27:36;;;;;;;2.27;1.13;;;30.00;49.40;;;;;;4991135;28;20813;-68
2022/06/26 12:30:15;;;;;;;2.63;1.50;;;30.00;49.10;;;;;;4990031;28;20467;-68
2022/06/26 12:32:42;;;;;;;2.90;1.10;;;30.00;50.10;;;;;;4994099;28;20896;-68
2022/06/26 12:35:09;;;;;;;2.10;0.87;;;30.00;50.20;;;;;;4994190;28;20494;-70
2022/06/26 12:37:37;;;;;;;2.10;1.07;;;29.90;50.00;;;;;;4990329;28;20509;-68
2022/06/26 12:40:05;;;;;;;2.03;1.00;;;30.00;50.10;;;;;;4990654;28;20454;-68
2022/06/26 12:42:32;;;;;;;2.10;1.00;;;29.90;49.80;;;;;;4993690;28;20525;-68
2022/06/26 12:45:01;;;;;;;2.70;1.00;;;29.90;50.60;;;;;;4993819;28;20443;-75
2022/06/26 12:47:28;;;;;;;2.60;1.10;;;29.90;51.30;;;;;;4994441;28;20499;-68
2022/06/26 12:49:55;;;;;;;2.47;1.20;;;30.00;50.60;;;;;;4993459;28;20789;-68
2022/06/26 12:52:22;;;;;;;2.03;1.00;;;30.00;51.00;;;;;;4994263;28;20444;-68
2022/06/26 12:54:55;;;;;;;2.73;1.30;;;30.00;50.90;;;;;;4993582;28;20442;-68
2022/06/26 12:57:22;;;;;;;4.90;1.53;;;30.00;52.60;;;;;;4990541;28;20452;-68
2022/06/26 12:59:49;;;;;;;1.90;1.30;;;30.00;51.90;;;;;;4992494;28;20838;-69
2022/06/26 13:02:18;;;;;;;1.80;0.80;;;30.00;51.30;;;;;;4993443;28;20456;-69
2022/06/26 13:04:45;;;;;;;2.90;1.00;;;30.10;52.40;;;;;;4992838;28;20926;-69
2022/06/26 13:07:12;;;;;;;2.23;0.97;;;30.10;51.00;;;;;;4992131;28;20947;-68